Time;durP1;ratioP1;P1;durP2;ratioP2;P2;SDS_P1;SDS_P2;PMS_P1;PMS_P2;Temp;Humidity;BMP_temperature;BMP_pressure;BME280_temperature;BME280_humidity;BME280_pressure;Samples;Min_cycle;Max_cycle;Signal;HPM_P1;HPM_P2
2022/08/02 00:01:35;;;;;;;;;;;17.70;99.90;;;;;;5095555;28;19904;-79
2022/08/02 00:04:00;;;;;;;;;;;17.70;99.90;;;;;;5091718;28;19908;-80
2022/08/02 00:06:26;;;;;;;;;;;17.60;99.90;;;;;;5095377;28;19900;-80
2022/08/02 00:08:52;;;;;;;;;;;17.50;99.90;;;;;;5094938;28;20001;-79
2022/08/02 00:11:18;;;;;;;;;;;17.50;99.90;;;;;;5094222;28;19904;-79
2022/08/02 00:13:44;;;;;;;;;;;17.50;99.90;;;;;;5099521;28;19916;-79
2022/08/02 00:16:09;;;;;;;;;;;17.40;99.90;;;;;;5094659;28;19908;-79
2022/08/02 00:18:35;;;;;;;;;;;17.40;99.90;;;;;;5093624;28;20521;-79
2022/08/02 00:21:00;;;;;;;;;;;17.40;99.90;;;;;;5094531;28;19904;-80
2022/08/02 00:23:26;;;;;;;;;;;17.40;99.90;;;;;;5095023;28;19927;-79
2022/08/02 00:25:52;;;;;;;;;;;17.50;99.90;;;;;;5094655;28;19904;-79
2022/08/02 00:28:17;;;;;;;;;;;17.50;99.90;;;;;;5095052;28;19904;-80
2022/08/02 00:30:43;;;;;;;;;;;17.60;99.90;;;;;;5093822;28;19904;-80
2022/08/02 00:33:08;;;;;;;;;;;17.50;99.90;;;;;;5095148;28;19911;-80
2022/08/02 00:35:34;;;;;;;;;;;17.50;99.90;;;;;;5091131;28;20432;-79
2022/08/02 00:38:01;;;;;;;;;;;17.50;99.90;;;;;;5094916;28;20417;-80
2022/08/02 00:40:26;;;;;;;;;;;17.60;99.90;;;;;;5093597;28;20307;-80
2022/08/02 00:43:03;;;;;;;;;;;17.50;99.90;;;;;;5093176;28;19908;-80
2022/08/02 00:45:30;;;;;;;;;;;17.50;99.90;;;;;;5101588;28;19958;-80
2022/08/02 00:47:55;;;;;;;;;;;17.50;99.90;;;;;;5094642;28;19915;-80
2022/08/02 00:50:21;;;;;;;;;;;17.40;99.90;;;;;;5094071;28;20386;-80
2022/08/02 00:52:46;;;;;;;;;;;17.40;99.90;;;;;;5085118;28;19911;-80
2022/08/02 00:55:12;;;;;;;;;;;17.40;99.90;;;;;;5093185;28;19919;-80
2022/08/02 00:57:37;;;;;;;;;;;17.40;99.90;;;;;;5089863;28;19904;-80
2022/08/02 01:00:04;;;;;;;;;;;17.40;99.90;;;;;;5093895;28;19911;-80
2022/08/02 01:02:29;;;;;;;;;;;17.40;99.90;;;;;;5092901;28;20381;-80
2022/08/02 01:04:55;;;;;;;;;;;17.40;99.90;;;;;;5088221;28;19904;-80
2022/08/02 01:07:20;;;;;;;;;;;17.30;99.90;;;;;;5093961;28;20008;-80
2022/08/02 01:09:46;;;;;;;;;;;17.40;99.90;;;;;;5094690;28;19910;-80
2022/08/02 01:12:12;;;;;;;;;;;17.40;99.90;;;;;;5093049;28;19908;-80
2022/08/02 01:14:38;;;;;;;;;;;17.40;99.90;;;;;;5094125;28;19919;-80
2022/08/02 01:17:14;;;;;;;;;;;17.50;99.90;;;;;;5094031;28;19912;-80
2022/08/02 01:19:51;;;;;;;;;;;17.40;99.90;;;;;;5092160;28;19907;-80
2022/08/02 01:22:36;;;;;;;;;;;17.40;99.90;;;;;;5094233;28;19950;-80
2022/08/02 01:25:04;;;;;;;;;;;17.30;99.90;;;;;;5087762;28;20458;-80
2022/08/02 01:27:33;;;;;;;;;;;17.30;99.90;;;;;;5101326;28;19908;-80
2022/08/02 01:29:59;;;;;;;;;;;17.40;99.90;;;;;;5094103;28;20285;-80
2022/08/02 01:32:28;;;;;;;;;;;17.50;99.90;;;;;;5092670;28;19904;-80
2022/08/02 01:35:10;;;;;;;;;;;17.40;99.90;;;;;;5089444;28;19916;-80
2022/08/02 01:37:35;;;;;;;;;;;17.40;99.90;;;;;;5087155;28;19989;-80
2022/08/02 01:40:07;;;;;;;;;;;17.40;99.90;;;;;;5087801;28;19965;-80
2022/08/02 01:42:34;;;;;;;;;;;17.50;99.90;;;;;;5093942;28;19911;-80
2022/08/02 01:45:01;;;;;;;;;;;17.50;99.90;;;;;;5093835;28;20316;-80
2022/08/02 01:47:29;;;;;;;;;;;17.60;99.90;;;;;;5093501;28;19911;-81
2022/08/02 01:49:56;;;;;;;;;;;17.60;99.90;;;;;;5092609;28;19995;-80
2022/08/02 01:52:25;;;;;;;;;;;17.70;99.90;;;;;;5093350;28;19915;-80
2022/08/02 08:08:37;;;;;;;2.25;0.50;;;21.00;99.90;;;;;;5125510;27;20369;-77
2022/08/02 08:11:03;;;;;;;2.63;0.70;;;21.30;99.90;;;;;;5123473;28;20065;-78
2022/08/02 08:13:29;;;;;;;2.72;0.40;;;21.10;99.90;;;;;;5107490;28;20038;-78
2022/08/02 08:15:54;;;;;;;3.45;0.47;;;21.00;99.90;;;;;;5107552;28;20444;-78
2022/08/02 08:18:21;;;;;;;0.63;0.35;;;21.10;99.90;;;;;;5107478;28;20028;-79
2022/08/02 08:20:47;;;;;;;0.95;0.50;;;21.10;99.90;;;;;;5106151;28;20027;-78
2022/08/02 08:23:12;;;;;;;2.15;0.50;;;21.20;99.90;;;;;;5107598;28;20024;-78
2022/08/02 08:25:38;;;;;;;1.83;0.73;;;21.10;99.90;;;;;;5106198;28;20480;-78
2022/08/02 08:28:04;;;;;;;1.35;0.50;;;20.90;99.90;;;;;;5107754;28;20028;-78
2022/08/02 08:30:29;;;;;;;2.38;0.55;;;20.90;99.90;;;;;;5107019;28;20012;-78
2022/08/02 08:32:55;;;;;;;2.45;0.40;;;20.90;99.90;;;;;;5106140;28;20031;-79
2022/08/02 08:35:21;;;;;;;2.75;0.30;;;20.90;99.90;;;;;;5105370;28;20066;-78
2022/08/02 08:37:47;;;;;;;1.08;0.52;;;21.00;99.90;;;;;;5106995;28;20031;-78
2022/08/02 08:40:13;;;;;;;0.80;0.68;;;20.70;99.90;;;;;;5107245;28;20031;-78
2022/08/02 08:42:39;;;;;;;6.35;1.00;;;20.70;99.90;;;;;;5107314;28;20024;-78
2022/08/02 08:45:06;;;;;;;4.03;1.13;;;20.70;99.90;;;;;;5107430;28;20068;-78
2022/08/02 08:47:34;;;;;;;3.63;0.82;;;20.70;99.90;;;;;;5106082;28;20036;-77
2022/08/02 08:50:04;;;;;;;1.73;0.60;;;20.70;99.90;;;;;;5105790;28;20016;-78
2022/08/02 08:53:12;;;;;;;5.10;1.67;;;20.80;99.90;;;;;;5107470;28;20476;-77
2022/08/02 08:55:38;;;;;;;0.70;0.50;;;20.80;99.90;;;;;;5062074;28;20025;-78
2022/08/02 08:58:04;;;;;;;1.85;0.30;;;20.70;99.90;;;;;;5065092;28;20094;-78
2022/08/02 09:00:32;;;;;;;0.75;0.30;;;20.60;99.90;;;;;;5084832;28;20039;-78
2022/08/02 09:02:58;;;;;;;1.85;0.20;;;20.90;99.90;;;;;;5107104;28;20047;-78
2022/08/02 09:05:24;;;;;;;1.38;0.60;;;20.90;99.90;;;;;;5104935;28;20070;-78
2022/08/02 09:07:52;;;;;;;4.80;0.70;;;20.90;99.90;;;;;;5101281;28;20079;-78
2022/08/02 09:10:50;;;;;;;0.52;0.43;;;20.90;99.90;;;;;;5090893;28;20020;-78
2022/08/02 09:13:21;;;;;;;2.83;0.90;;;20.70;99.90;;;;;;5055583;28;20112;-78
2022/08/02 09:16:02;;;;;;;3.97;1.33;;;20.60;99.90;;;;;;5092943;28;20034;-78
2022/08/02 09:18:39;;;;;;;2.47;0.80;;;20.40;99.90;;;;;;5092444;28;20107;-78
2022/08/02 09:21:09;;;;;;;1.58;0.85;;;20.40;99.90;;;;;;5092637;28;20110;-78
2022/08/02 09:23:37;;;;;;;2.38;0.90;;;20.30;99.90;;;;;;5092931;28;20012;-79
2022/08/02 09:26:09;;;;;;;4.55;0.68;;;20.40;99.90;;;;;;5085994;28;20069;-78
2022/08/02 09:28:38;;;;;;;2.90;1.10;;;20.40;99.90;;;;;;5092799;28;20380;-78
2022/08/02 09:31:12;;;;;;;3.50;0.90;;;20.40;99.90;;;;;;5092832;28;20027;-78
2022/08/02 09:33:41;;;;;;;2.95;0.60;;;20.40;99.90;;;;;;5092613;28;20016;-78
2022/08/02 09:36:11;;;;;;;2.05;0.50;;;20.30;99.90;;;;;;5092549;28;20035;-79
2022/08/02 09:38:39;;;;;;;2.83;0.70;;;20.30;99.90;;;;;;5092714;28;20473;-78
2022/08/02 09:41:18;;;;;;;2.22;0.43;;;20.30;99.90;;;;;;5092464;28;20024;-78
2022/08/02 09:43:44;;;;;;;1.95;0.60;;;20.40;99.90;;;;;;5090933;28;20103;-77
2022/08/02 09:46:17;;;;;;;1.25;0.50;;;20.60;99.90;;;;;;5092468;28;20023;-78
2022/08/02 09:49:03;;;;;;;2.05;0.50;;;20.40;99.90;;;;;;5092043;28;20546;-78
2022/08/02 09:51:34;;;;;;;2.03;0.57;;;20.60;99.90;;;;;;5090765;28;20020;-77
2022/08/02 09:54:06;;;;;;;1.67;0.55;;;20.70;99.90;;;;;;5092477;28;20028;-77
2022/08/02 09:56:40;;;;;;;1.95;0.40;;;20.60;99.90;;;;;;5092377;28;20035;-78
2022/08/02 11:56:28;;;;;;;3.58;1.70;;;21.40;99.90;;;;;;5127248;27;20429;-78
2022/08/02 11:59:04;;;;;;;3.28;1.35;;;21.20;99.90;;;;;;5111089;28;20102;-78
2022/08/02 12:01:31;;;;;;;6.38;1.67;;;21.20;99.90;;;;;;5106819;28;20059;-78
2022/08/02 12:03:59;;;;;;;2.70;1.77;;;21.30;99.90;;;;;;5107548;28;20035;-78
2022/08/02 12:06:30;;;;;;;5.40;2.30;;;21.50;99.90;;;;;;5107096;28;20023;-78
2022/08/02 12:09:10;;;;;;;3.22;1.30;;;21.60;99.90;;;;;;5106699;28;20018;-77
2022/08/02 12:11:36;;;;;;;3.25;1.55;;;21.70;99.90;;;;;;5107347;28;20022;-78
2022/08/02 12:14:03;;;;;;;5.45;1.50;;;21.80;99.90;;;;;;5107895;28;20024;-78
2022/08/02 12:19:25;;;;;;;3.80;1.40;;;22.20;99.90;;;;;;5102992;28;20035;-77
2022/08/02 12:22:12;;;;;;;2.80;1.08;;;22.30;99.90;;;;;;5100337;28;20020;-78
2022/08/02 12:24:40;;;;;;;3.75;1.40;;;22.30;99.90;;;;;;5094516;28;20095;-78
2022/08/02 12:27:07;;;;;;;3.55;1.20;;;22.30;99.90;;;;;;5106053;28;20024;-78
2022/08/02 12:29:41;;;;;;;1.52;1.30;;;22.50;99.90;;;;;;5108177;28;20468;-78
2022/08/02 12:32:08;;;;;;;2.53;1.40;;;22.50;99.90;;;;;;5107188;28;20391;-78
2022/08/02 12:34:34;;;;;;;3.60;1.63;;;22.50;99.90;;;;;;5100427;28;20353;-78
2022/08/02 12:37:00;;;;;;;2.63;1.30;;;22.60;99.90;;;;;;5106617;28;20137;-78
2022/08/02 12:39:37;;;;;;;4.32;1.55;;;22.50;99.90;;;;;;5107093;28;20457;-78
2022/08/02 12:42:05;;;;;;;6.57;1.45;;;22.80;99.90;;;;;;5107398;28;20015;-78
2022/08/02 12:44:31;;;;;;;4.90;1.30;;;22.90;99.90;;;;;;5105660;28;20051;-78
2022/08/02 12:47:02;;;;;;;4.05;1.20;;;22.90;99.90;;;;;;5106936;28;20101;-77
2022/08/02 12:49:28;;;;;;;6.18;1.27;;;23.00;99.90;;;;;;5105522;28;20024;-77
2022/08/02 12:51:54;;;;;;;4.32;1.55;;;23.20;99.90;;;;;;5104978;28;20020;-78
2022/08/02 12:54:22;;;;;;;4.15;0.93;;;23.20;99.90;;;;;;5106974;28;20091;-77
2022/08/02 12:56:49;;;;;;;4.53;1.13;;;23.30;99.90;;;;;;5094974;28;20541;-77
2022/08/02 12:59:16;;;;;;;1.92;1.02;;;23.40;99.90;;;;;;5093485;28;20024;-78
2022/08/02 13:01:42;;;;;;;4.80;1.13;;;23.20;99.90;;;;;;5094907;28;20581;-77
2022/08/02 13:04:08;;;;;;;6.90;1.40;;;23.30;99.90;;;;;;5092382;28;20032;-77
2022/08/02 13:06:34;;;;;;;9.95;1.40;;;23.40;99.90;;;;;;5091435;28;20047;-77
2022/08/02 13:09:01;;;;;;;4.93;1.50;;;23.30;99.90;;;;;;5090430;28;20016;-77
2022/08/02 13:11:27;;;;;;;4.30;1.10;;;22.90;99.90;;;;;;5092551;28;20032;-77
2022/08/02 13:13:53;;;;;;;8.25;1.25;;;22.70;99.90;;;;;;5092803;28;20024;-77
2022/08/02 13:16:19;;;;;;;3.97;1.02;;;22.40;99.90;;;;;;5092522;28;20100;-78
2022/08/02 13:18:45;;;;;;;7.53;1.35;;;22.30;99.90;;;;;;5092966;28;20496;-77
2022/08/02 13:21:11;;;;;;;2.55;1.02;;;22.40;99.90;;;;;;5092887;28;20031;-78
2022/08/02 13:23:37;;;;;;;4.60;1.02;;;22.70;99.90;;;;;;5093137;28;20020;-77
2022/08/02 13:26:04;;;;;;;7.25;1.52;;;22.80;99.90;;;;;;5091355;28;20601;-77
2022/08/02 13:28:30;;;;;;;3.53;0.93;;;22.80;99.90;;;;;;5092849;28;20042;-77
2022/08/02 13:30:56;;;;;;;1.90;0.60;;;22.90;99.90;;;;;;5090532;28;20028;-77
2022/08/02 13:33:21;;;;;;;2.55;0.65;;;22.90;99.90;;;;;;5092763;28;20058;-77
2022/08/02 13:35:48;;;;;;;3.28;0.70;;;22.90;99.90;;;;;;5092444;28;20571;-77
2022/08/02 13:38:14;;;;;;;2.25;1.40;;;22.90;99.90;;;;;;5092230;28;20019;-78
2022/08/02 13:43:25;;;;;;;2.75;1.02;;;22.90;99.90;;;;;;5092539;28;20039;-77
2022/08/02 13:45:51;;;;;;;3.35;1.02;;;22.90;99.90;;;;;;5091394;28;20036;-77
2022/08/02 13:48:16;;;;;;;5.90;1.52;;;23.00;99.90;;;;;;5092360;28;20100;-77
2022/08/02 13:50:42;;;;;;;6.03;1.23;;;23.20;99.90;;;;;;5092687;28;20024;-78
2022/08/02 13:53:08;;;;;;;2.70;1.45;;;23.40;99.90;;;;;;5092135;28;20421;-77
2022/08/02 13:55:34;;;;;;;2.10;0.73;;;23.80;99.90;;;;;;5088707;28;20078;-77
2022/08/02 13:58:00;;;;;;;3.22;1.20;;;24.00;99.90;;;;;;5092038;28;20070;-78
2022/08/02 14:00:26;;;;;;;7.35;1.33;;;24.10;99.90;;;;;;5090570;28;20368;-78
2022/08/02 14:02:52;;;;;;;3.65;1.73;;;23.80;99.90;;;;;;5091755;28;20052;-78
2022/08/02 14:05:18;;;;;;;4.30;1.20;;;23.60;99.90;;;;;;5092093;28;20071;-78
2022/08/02 14:07:43;;;;;;;3.25;1.10;;;24.00;99.90;;;;;;5090609;28;20031;-78
2022/08/02 14:10:09;;;;;;;2.25;0.85;;;24.40;99.90;;;;;;5089284;28;20639;-78
2022/08/02 14:12:35;;;;;;;2.13;0.90;;;24.80;99.90;;;;;;5087840;28;20024;-78
2022/08/02 14:15:01;;;;;;;4.07;1.13;;;24.60;99.90;;;;;;5089652;28;20504;-77
2022/08/02 14:17:26;;;;;;;4.40;1.30;;;24.40;99.90;;;;;;5091645;28;20020;-78
2022/08/02 14:19:52;;;;;;;3.40;1.35;;;24.30;99.90;;;;;;5090724;28;20461;-79
2022/08/02 14:22:18;;;;;;;4.28;1.10;;;24.10;99.90;;;;;;5090883;28;20092;-80
2022/08/02 14:24:43;;;;;;;6.35;1.55;;;24.40;99.90;;;;;;5091036;28;20032;-79
2022/08/02 14:27:09;;;;;;;5.05;1.50;;;24.70;99.90;;;;;;5090686;28;20062;-78
2022/08/02 14:29:35;;;;;;;6.47;1.50;;;24.60;99.90;;;;;;5082318;28;20032;-79
2022/08/02 14:32:01;;;;;;;2.55;1.02;;;24.50;99.90;;;;;;5089791;28;20020;-79
2022/08/02 14:34:28;;;;;;;7.82;1.70;;;24.70;99.90;;;;;;5091357;28;20042;-80
2022/08/02 14:36:55;;;;;;;7.28;1.40;;;24.50;99.90;;;;;;5091471;28;20039;-79
2022/08/02 14:39:21;;;;;;;2.83;0.80;;;24.10;99.90;;;;;;5090129;28;20443;-79
2022/08/02 14:41:47;;;;;;;2.50;1.30;;;24.00;99.90;;;;;;5095322;28;20694;-79
2022/08/02 14:44:13;;;;;;;5.53;1.10;;;23.80;99.90;;;;;;5090953;28;20066;-78
2022/08/02 14:46:40;;;;;;;4.57;1.48;;;23.60;99.90;;;;;;5092116;28;20055;-79
2022/08/02 14:49:07;;;;;;;3.30;1.25;;;23.40;99.90;;;;;;5090439;28;20016;-77
2022/08/02 14:51:34;;;;;;;3.22;1.60;;;23.20;99.90;;;;;;5086643;28;20028;-78
2022/08/02 14:54:01;;;;;;;4.13;1.27;;;23.70;99.90;;;;;;5090113;28;20041;-77
2022/08/02 14:56:27;;;;;;;4.35;1.67;;;24.00;99.90;;;;;;5094003;28;20114;-79
2022/08/02 14:58:52;;;;;;;3.30;1.50;;;24.20;99.90;;;;;;5090940;28;20437;-79
2022/08/02 15:01:18;;;;;;;4.85;1.77;;;24.30;99.90;;;;;;5089074;28;20016;-79
2022/08/02 15:03:44;;;;;;;3.45;1.30;;;24.10;99.90;;;;;;5090712;28;20504;-78
2022/08/02 15:06:10;;;;;;;3.40;1.20;;;24.30;99.90;;;;;;5081409;28;20103;-77
2022/08/02 15:08:35;;;;;;;4.93;1.23;;;24.60;99.90;;;;;;5076924;28;20020;-77
2022/08/02 15:11:01;;;;;;;5.88;1.50;;;24.80;99.90;;;;;;5074147;28;20023;-77
2022/08/02 15:13:27;;;;;;;1.95;1.20;;;25.00;99.90;;;;;;5076248;28;20480;-77
2022/08/02 15:15:52;;;;;;;4.72;1.15;;;24.90;99.90;;;;;;5077638;28;20099;-78
2022/08/02 15:18:18;;;;;;;1.90;1.00;;;24.60;99.90;;;;;;5077067;28;20154;-78
2022/08/02 15:20:45;;;;;;;4.15;1.83;;;24.70;99.90;;;;;;5076156;28;20076;-78
2022/08/02 15:23:15;;;;;;;4.93;1.50;;;24.80;99.90;;;;;;5078575;28;20027;-78
2022/08/02 15:25:41;;;;;;;6.40;1.30;;;25.10;99.90;;;;;;5080019;28;20146;-78
2022/08/02 15:28:07;;;;;;;5.63;1.67;;;25.10;99.90;;;;;;5076508;28;20032;-78
2022/08/02 15:30:34;;;;;;;5.25;1.77;;;24.90;99.90;;;;;;5076220;28;20024;-78
2022/08/02 15:33:00;;;;;;;4.15;1.52;;;24.70;99.90;;;;;;5080641;28;20020;-79
2022/08/02 15:35:26;;;;;;;2.55;1.30;;;24.70;99.90;;;;;;5077797;28;20035;-79
2022/08/02 15:37:52;;;;;;;6.85;1.55;;;24.40;99.90;;;;;;5077840;28;20067;-79
2022/08/02 15:40:18;;;;;;;7.60;2.60;;;24.00;99.90;;;;;;5079404;28;20024;-80
2022/08/02 15:42:43;;;;;;;3.30;1.67;;;24.00;99.90;;;;;;5076514;28;20027;-80
2022/08/02 15:45:09;;;;;;;5.93;2.05;;;23.70;99.90;;;;;;5075896;28;20044;-79
2022/08/02 15:47:35;;;;;;;8.90;2.60;;;23.70;99.90;;;;;;5076071;28;20362;-79
2022/08/02 15:50:01;;;;;;;4.50;1.90;;;23.40;99.90;;;;;;5079496;28;20039;-79
2022/08/02 15:52:27;;;;;;;3.97;1.60;;;23.30;99.90;;;;;;5078182;28;20034;-79
2022/08/02 15:54:54;;;;;;;3.85;1.65;;;23.10;99.90;;;;;;5079603;28;20059;-79
2022/08/02 15:57:19;;;;;;;8.10;1.35;;;23.40;99.90;;;;;;5078439;28;20028;-79
2022/08/02 15:59:45;;;;;;;7.53;1.60;;;23.30;99.90;;;;;;5074421;28;20020;-79
2022/08/02 16:02:12;;;;;;;4.93;1.83;;;23.20;99.90;;;;;;5077689;28;20097;-80
2022/08/02 16:04:38;;;;;;;7.97;1.60;;;23.00;99.90;;;;;;5075386;28;20036;-80
2022/08/02 16:07:04;;;;;;;5.85;1.42;;;22.90;99.90;;;;;;5082380;28;20410;-78
2022/08/02 16:09:29;;;;;;;5.47;1.02;;;22.60;99.90;;;;;;5082935;28;20048;-79
2022/08/02 16:11:56;;;;;;;4.80;1.20;;;22.50;99.90;;;;;;5088846;28;20395;-79
2022/08/02 16:14:21;;;;;;;8.07;2.03;;;22.40;99.90;;;;;;5089010;28;20024;-81
2022/08/02 16:16:47;;;;;;;5.78;1.33;;;22.10;99.90;;;;;;5090030;28;20287;-80
2022/08/02 16:19:13;;;;;;;4.32;1.38;;;22.00;99.90;;;;;;5089627;28;20028;-81
2022/08/02 16:21:38;;;;;;;7.68;1.50;;;22.00;99.90;;;;;;5089215;28;20048;-80
2022/08/02 16:24:04;;;;;;;3.92;1.00;;;22.30;99.90;;;;;;5089938;28;20024;-80
2022/08/02 16:26:31;;;;;;;5.38;1.00;;;22.40;99.90;;;;;;5090005;28;20415;-80
2022/08/02 16:28:58;;;;;;;4.70;1.27;;;22.30;99.90;;;;;;5090097;28;20016;-80
2022/08/02 16:31:24;;;;;;;3.67;1.40;;;22.40;99.90;;;;;;5091494;28;20103;-81
2022/08/02 16:33:49;;;;;;;8.27;1.95;;;22.60;99.90;;;;;;5093772;28;20136;-81
2022/08/02 16:36:15;;;;;;;3.35;0.95;;;22.60;99.90;;;;;;5091638;28;20059;-81
2022/08/02 16:38:41;;;;;;;1.75;0.95;;;22.40;99.90;;;;;;5092888;28;20065;-87
2022/08/02 16:41:07;;;;;;;3.47;1.10;;;22.40;99.90;;;;;;5093842;28;20077;-80
2022/08/02 16:43:34;;;;;;;6.93;1.55;;;22.40;99.90;;;;;;5093513;28;20024;-80
2022/08/02 16:45:59;;;;;;;7.65;1.25;;;22.30;99.90;;;;;;5091929;28;20109;-82
2022/08/02 16:48:25;;;;;;;7.13;1.25;;;22.20;99.90;;;;;;5093470;28;20414;-80
2022/08/02 16:50:51;;;;;;;5.15;1.60;;;22.30;99.90;;;;;;5093763;28;20035;-80
2022/08/02 16:53:17;;;;;;;4.63;1.33;;;22.50;99.90;;;;;;5093396;28;20020;-80
2022/08/02 16:55:43;;;;;;;3.05;1.20;;;22.30;99.90;;;;;;5093677;28;20384;-80
2022/08/02 16:58:09;;;;;;;5.63;1.25;;;22.40;99.90;;;;;;5092283;28;20392;-79
2022/08/02 17:00:35;;;;;;;6.28;1.55;;;22.50;99.90;;;;;;5093413;28;20031;-80
2022/08/02 17:03:00;;;;;;;6.45;1.40;;;22.70;99.90;;;;;;5092299;28;20012;-80
2022/08/02 17:05:28;;;;;;;4.80;1.27;;;22.80;99.90;;;;;;5092165;28;20046;-80
2022/08/02 17:07:54;;;;;;;7.53;1.30;;;22.80;99.90;;;;;;5092380;28;20107;-80
2022/08/02 17:10:19;;;;;;;4.10;1.00;;;22.80;99.90;;;;;;5093741;28;20104;-80
2022/08/02 17:12:45;;;;;;;5.72;1.15;;;22.60;99.90;;;;;;5092998;28;20027;-80
2022/08/02 17:15:11;;;;;;;3.50;1.02;;;22.30;99.90;;;;;;5093195;28;20438;-80
2022/08/02 17:17:36;;;;;;;6.55;1.90;;;22.20;99.90;;;;;;5092950;28;20024;-78
2022/08/02 18:52:00;;;;;;;5.60;1.77;;;20.60;99.90;;;;;;5128284;27;20964;-78
2022/08/02 18:54:26;;;;;;;5.32;1.85;;;20.20;99.90;;;;;;5124609;27;20033;-79
2022/08/02 18:56:52;;;;;;;8.32;2.10;;;20.20;99.90;;;;;;5126466;27;20024;-79
2022/08/02 18:59:18;;;;;;;8.68;1.55;;;20.10;99.90;;;;;;5127295;27;20443;-79
2022/08/02 19:01:44;;;;;;;9.38;2.20;;;20.10;99.90;;;;;;5125622;27;20094;-79
2022/08/02 19:04:10;;;;;;;8.55;1.92;;;20.00;99.90;;;;;;5122589;27;20035;-79
2022/08/02 19:06:36;;;;;;;7.88;1.95;;;20.00;99.90;;;;;;5119526;27;20110;-78
2022/08/02 19:09:02;;;;;;;7.47;2.15;;;19.90;99.90;;;;;;5124351;27;20084;-79
2022/08/02 19:11:28;;;;;;;10.27;2.70;;;19.90;99.90;;;;;;5116356;27;20031;-79
2022/08/02 19:13:54;;;;;;;6.70;2.00;;;19.80;99.90;;;;;;5123467;27;20042;-78
2022/08/02 19:16:22;;;;;;;4.95;1.90;;;19.70;99.90;;;;;;5124309;27;20019;-80
2022/08/02 19:18:47;;;;;;;4.93;2.33;;;19.60;99.90;;;;;;5123533;28;20015;-78
2022/08/02 19:21:14;;;;;;;8.00;2.17;;;19.50;99.90;;;;;;5123455;27;20375;-79
2022/08/02 19:23:40;;;;;;;6.28;1.90;;;19.50;99.90;;;;;;5124494;27;20023;-81
2022/08/02 19:26:06;;;;;;;7.47;1.35;;;19.40;99.90;;;;;;5123760;28;20039;-81
2022/08/02 19:28:32;;;;;;;4.35;2.20;;;19.40;99.90;;;;;;5123044;28;20139;-79
2022/08/02 19:30:59;;;;;;;4.43;2.25;;;19.20;99.90;;;;;;5123976;27;20586;-80
2022/08/02 19:33:25;;;;;;;4.88;1.95;;;19.20;99.90;;;;;;5116728;28;20055;-83
2022/08/02 19:35:51;;;;;;;5.10;1.80;;;19.10;99.90;;;;;;5123864;27;20444;-82
2022/08/02 19:38:17;;;;;;;8.90;2.58;;;19.00;99.90;;;;;;5123980;27;20015;-78
2022/08/02 19:40:43;;;;;;;8.00;2.40;;;18.90;99.90;;;;;;5123872;28;20023;-81
2022/08/02 19:43:12;;;;;;;8.15;2.30;;;18.90;99.90;;;;;;5122407;28;20034;-79
2022/08/02 19:45:37;;;;;;;3.15;1.70;;;18.80;99.90;;;;;;5121973;28;20489;-78
2022/08/02 19:48:10;;;;;;;6.63;2.20;;;18.80;99.90;;;;;;5123794;28;20027;-80
2022/08/02 19:50:38;;;;;;;7.25;1.88;;;18.70;99.90;;;;;;5132102;27;20031;-79
2022/08/02 19:53:03;;;;;;;11.57;2.42;;;18.70;99.90;;;;;;5130133;27;20023;-79
2022/08/02 19:55:29;;;;;;;12.38;2.50;;;18.60;99.90;;;;;;5129898;27;20027;-80
2022/08/02 19:57:55;;;;;;;7.93;2.28;;;18.60;99.90;;;;;;5129979;27;20481;-81
2022/08/02 20:00:21;;;;;;;4.35;1.90;;;18.60;99.90;;;;;;5129756;27;20019;-80
2022/08/02 20:02:47;;;;;;;10.82;2.33;;;18.60;99.90;;;;;;5130721;27;20038;-81
2022/08/02 20:05:13;;;;;;;5.72;2.20;;;18.60;99.90;;;;;;5127877;27;20058;-83
2022/08/02 20:07:43;;;;;;;13.23;2.50;;;18.60;99.90;;;;;;5121891;27;20031;-83
2022/08/02 20:10:10;;;;;;;11.77;2.90;;;18.50;99.90;;;;;;5125960;27;20071;-85
2022/08/02 20:12:36;;;;;;;8.00;2.30;;;18.50;99.90;;;;;;5128466;27;20016;-80
2022/08/02 20:15:03;;;;;;;14.63;2.78;;;18.50;99.90;;;;;;5129929;27;20011;-81
2022/08/02 20:17:30;;;;;;;8.90;2.95;;;18.50;99.90;;;;;;5127722;27;20068;-79
2022/08/02 20:19:57;;;;;;;10.40;2.38;;;18.60;99.90;;;;;;5128567;27;20483;-79
2022/08/02 20:22:22;;;;;;;6.57;2.13;;;18.50;99.90;;;;;;5129882;27;20106;-78
2022/08/02 20:24:48;;;;;;;8.68;3.08;;;18.50;99.90;;;;;;5130051;27;20103;-81
2022/08/02 20:27:15;;;;;;;6.68;2.65;;;18.40;99.90;;;;;;5130111;27;20027;-78
2022/08/02 20:29:41;;;;;;;8.00;2.40;;;18.30;99.90;;;;;;5129136;27;20019;-78
2022/08/02 20:32:07;;;;;;;11.55;2.75;;;18.30;99.90;;;;;;5128683;27;20031;-78
2022/08/02 20:34:33;;;;;;;9.00;2.63;;;18.20;99.90;;;;;;5130045;27;20023;-78
2022/08/02 20:36:59;;;;;;;6.80;2.42;;;18.20;99.90;;;;;;5129490;27;20023;-78
2022/08/02 20:39:25;;;;;;;10.80;2.38;;;18.20;99.90;;;;;;5129343;27;20031;-78
2022/08/02 20:41:51;;;;;;;10.88;2.83;;;18.20;99.90;;;;;;5122156;27;20027;-78
2022/08/02 20:44:17;;;;;;;12.90;2.42;;;18.10;99.90;;;;;;5127697;27;20015;-78
2022/08/02 20:46:43;;;;;;;13.00;3.08;;;18.10;99.90;;;;;;5128856;27;20023;-78
2022/08/02 20:49:09;;;;;;;7.70;2.33;;;18.10;99.90;;;;;;5129476;27;20015;-78
2022/08/02 20:51:35;;;;;;;12.13;3.20;;;18.00;99.90;;;;;;5128711;27;20063;-78
2022/08/02 20:54:01;;;;;;;11.90;2.33;;;18.00;99.90;;;;;;5128469;27;20066;-78
2022/08/02 20:56:27;;;;;;;7.18;2.35;;;18.10;99.90;;;;;;5123746;27;20127;-78
2022/08/02 20:58:52;;;;;;;12.10;2.30;;;18.10;99.90;;;;;;5129733;27;20015;-78
2022/08/02 21:01:19;;;;;;;12.32;2.17;;;18.00;99.90;;;;;;5124055;27;20024;-79
2022/08/02 21:03:44;;;;;;;4.78;2.75;;;18.00;99.90;;;;;;5128174;27;20071;-79
2022/08/02 21:06:10;;;;;;;14.27;2.22;;;18.00;99.90;;;;;;5124457;27;20011;-79
2022/08/02 21:08:37;;;;;;;8.80;2.03;;;18.10;99.90;;;;;;5128797;27;20027;-78
2022/08/02 21:11:04;;;;;;;10.18;2.25;;;18.10;99.90;;;;;;5125038;27;20502;-78
2022/08/02 21:13:29;;;;;;;4.40;2.22;;;18.10;99.90;;;;;;5128663;27;20059;-78
2022/08/02 21:15:55;;;;;;;9.80;2.85;;;18.20;99.90;;;;;;5124594;27;20547;-80
2022/08/02 21:18:21;;;;;;;12.32;2.65;;;18.20;99.90;;;;;;5119084;27;20020;-80
2022/08/02 21:20:47;;;;;;;13.05;2.60;;;18.20;99.90;;;;;;5126558;27;20019;-79
2022/08/02 21:23:12;;;;;;;9.68;2.65;;;18.30;99.90;;;;;;5121724;27;20023;-79
2022/08/02 21:25:38;;;;;;;7.45;2.40;;;18.20;99.90;;;;;;5127728;27;20029;-79
2022/08/02 21:28:04;;;;;;;6.93;2.42;;;18.30;99.90;;;;;;5121796;27;20603;-79
2022/08/02 21:30:29;;;;;;;7.38;2.10;;;18.20;99.90;;;;;;5125551;27;20027;-79
2022/08/02 21:32:55;;;;;;;8.10;2.90;;;18.20;99.90;;;;;;5127298;27;20483;-79
2022/08/02 21:35:22;;;;;;;5.72;2.17;;;18.10;99.90;;;;;;5125483;27;20451;-78
2022/08/02 21:37:49;;;;;;;12.40;2.92;;;18.10;99.90;;;;;;5125604;27;20102;-78
2022/08/02 21:40:15;;;;;;;13.02;2.75;;;18.10;99.90;;;;;;5123593;27;20055;-78
2022/08/02 21:42:41;;;;;;;11.02;3.45;;;18.10;99.90;;;;;;5125665;27;20122;-79
2022/08/02 21:45:07;;;;;;;19.45;3.60;;;18.10;99.90;;;;;;5125781;27;20011;-79
2022/08/02 21:47:33;;;;;;;6.93;2.60;;;18.10;99.90;;;;;;5126575;27;20038;-79
2022/08/02 21:49:59;;;;;;;10.48;2.80;;;18.00;99.90;;;;;;5126948;27;20039;-79
2022/08/02 21:52:26;;;;;;;8.27;2.58;;;18.00;99.90;;;;;;5126644;27;20019;-79
2022/08/02 21:54:54;;;;;;;6.38;2.53;;;17.90;99.90;;;;;;5126641;27;20099;-78
2022/08/02 21:57:21;;;;;;;9.05;2.70;;;18.00;99.90;;;;;;5130700;27;20022;-78
2022/08/02 21:59:48;;;;;;;14.10;2.72;;;18.00;99.90;;;;;;5131826;27;20022;-77
2022/08/02 22:02:16;;;;;;;8.68;2.80;;;18.10;99.90;;;;;;5129008;27;20015;-78
2022/08/02 22:04:43;;;;;;;7.18;2.83;;;18.10;99.90;;;;;;5130038;27;20020;-77
2022/08/02 22:07:09;;;;;;;8.70;2.67;;;18.10;99.90;;;;;;5131784;27;20023;-77
2022/08/02 22:09:35;;;;;;;9.23;2.70;;;18.10;99.90;;;;;;5129617;27;20369;-77
2022/08/02 22:12:00;;;;;;;10.07;2.63;;;18.10;99.90;;;;;;5130341;27;20023;-77
2022/08/02 22:14:26;;;;;;;9.55;2.80;;;18.20;99.90;;;;;;5131128;27;20046;-76
2022/08/02 22:16:52;;;;;;;9.75;2.65;;;18.20;99.90;;;;;;5131555;27;20038;-77
2022/08/02 22:19:17;;;;;;;8.30;2.72;;;18.20;99.90;;;;;;5131532;27;20090;-77
2022/08/02 22:21:43;;;;;;;4.63;2.40;;;18.20;99.90;;;;;;5131745;27;20039;-77
2022/08/02 22:24:09;;;;;;;14.18;2.95;;;18.40;99.90;;;;;;5131635;27;20008;-77
2022/08/02 22:26:35;;;;;;;12.27;2.90;;;18.40;99.90;;;;;;5131824;27;20023;-77
2022/08/02 22:29:02;;;;;;;8.55;2.45;;;18.50;99.90;;;;;;5131854;27;20072;-77
2022/08/02 22:31:28;;;;;;;9.30;2.33;;;18.60;99.90;;;;;;5131803;27;20050;-77
2022/08/02 22:34:05;;;;;;;10.82;2.67;;;18.60;99.90;;;;;;5130328;27;20023;-77
2022/08/02 22:36:37;;;;;;;9.00;2.60;;;18.60;99.90;;;;;;5130074;27;20027;-77
2022/08/02 22:39:06;;;;;;;13.95;3.42;;;18.60;99.90;;;;;;5131870;28;20099;-77
2022/08/02 22:41:32;;;;;;;9.57;2.50;;;18.60;99.90;;;;;;5130949;28;20023;-77
2022/08/02 22:43:58;;;;;;;6.50;2.85;;;18.60;99.90;;;;;;5131454;28;20029;-78
2022/08/02 22:46:24;;;;;;;8.80;2.33;;;18.60;99.90;;;;;;5131298;28;20472;-77